sensor_id;sensor_type;location;lat;lon;timestamp;pressure;altitude;pressure_sealevel;temperature;humidity
46379;BME280;32084;42.254;22.744;2024-02-28T00:00:26;95477.75;;;6.71;88.69
46379;BME280;32084;42.254;22.744;2024-02-28T00:02:53;95482.56;;;6.77;89.28
46379;BME280;32084;42.254;22.744;2024-02-28T00:05:19;95480.94;;;6.86;88.29
46379;BME280;32084;42.254;22.744;2024-02-28T00:07:45;95473.44;;;6.70;88.59
46379;BME280;32084;42.254;22.744;2024-02-28T00:10:13;95480.75;;;6.77;88.12
46379;BME280;32084;42.254;22.744;2024-02-28T00:12:39;95472.72;;;6.89;88.04
46379;BME280;32084;42.254;22.744;2024-02-28T00:15:06;95475.22;;;6.69;87.88
46379;BME280;32084;42.254;22.744;2024-02-28T00:17:39;95479.31;;;6.73;88.56
46379;BME280;32084;42.254;22.744;2024-02-28T00:20:08;95481.72;;;6.55;92.77
46379;BME280;32084;42.254;22.744;2024-02-28T00:22:36;95482.69;;;6.75;91.24
46379;BME280;32084;42.254;22.744;2024-02-28T00:25:03;95476.38;;;6.97;90.75
46379;BME280;32084;42.254;22.744;2024-02-28T00:27:31;95481.44;;;7.21;89.62
46379;BME280;32084;42.254;22.744;2024-02-28T00:29:57;95482.84;;;7.26;89.16
46379;BME280;32084;42.254;22.744;2024-02-28T00:32:23;95483.59;;;7.07;87.23
46379;BME280;32084;42.254;22.744;2024-02-28T00:34:49;95486.19;;;6.55;88.59
46379;BME280;32084;42.254;22.744;2024-02-28T00:37:15;95486.31;;;6.53;91.79
46379;BME280;32084;42.254;22.744;2024-02-28T00:39:43;95486.63;;;6.60;91.44
46379;BME280;32084;42.254;22.744;2024-02-28T00:42:09;95486.50;;;6.61;92.18
46379;BME280;32084;42.254;22.744;2024-02-28T00:44:35;95477.63;;;6.72;90.69
46379;BME280;32084;42.254;22.744;2024-02-28T00:47:02;95477.25;;;6.77;90.91
46379;BME280;32084;42.254;22.744;2024-02-28T00:49:28;95484.84;;;6.81;90.73
46379;BME280;32084;42.254;22.744;2024-02-28T00:51:54;95484.44;;;6.65;91.04
46379;BME280;32084;42.254;22.744;2024-02-28T00:54:20;95490.47;;;6.67;91.51
46379;BME280;32084;42.254;22.744;2024-02-28T00:56:49;95493.00;;;6.69;90.65
46379;BME280;32084;42.254;22.744;2024-02-28T00:59:16;95498.00;;;6.83;89.91
46379;BME280;32084;42.254;22.744;2024-02-28T01:01:42;95501.72;;;7.01;88.96
46379;BME280;32084;42.254;22.744;2024-02-28T01:04:27;95500.38;;;7.07;89.11
46379;BME280;32084;42.254;22.744;2024-02-28T01:06:53;95502.59;;;7.02;88.27
46379;BME280;32084;42.254;22.744;2024-02-28T01:09:20;95504.69;;;6.98;88.58
46379;BME280;32084;42.254;22.744;2024-02-28T01:11:46;95502.06;;;7.08;89.06
46379;BME280;32084;42.254;22.744;2024-02-28T01:14:12;95502.66;;;6.91;89.72
46379;BME280;32084;42.254;22.744;2024-02-28T01:16:38;95504.53;;;6.79;90.52
46379;BME280;32084;42.254;22.744;2024-02-28T01:19:04;95502.38;;;6.94;90.09
46379;BME280;32084;42.254;22.744;2024-02-28T01:21:30;95501.63;;;7.03;89.94
46379;BME280;32084;42.254;22.744;2024-02-28T01:23:56;95496.69;;;6.98;89.44
46379;BME280;32084;42.254;22.744;2024-02-28T01:26:22;95505.69;;;6.65;88.40
46379;BME280;32084;42.254;22.744;2024-02-28T01:28:48;95500.94;;;6.48;90.81
46379;BME280;32084;42.254;22.744;2024-02-28T01:31:14;95504.13;;;6.41;92.21
46379;BME280;32084;42.254;22.744;2024-02-28T01:33:40;95506.81;;;6.62;91.37
46379;BME280;32084;42.254;22.744;2024-02-28T01:36:07;95505.63;;;6.76;89.81
46379;BME280;32084;42.254;22.744;2024-02-28T01:38:33;95503.50;;;6.70;90.31
46379;BME280;32084;42.254;22.744;2024-02-28T01:40:59;95493.50;;;6.41;90.76
46379;BME280;32084;42.254;22.744;2024-02-28T01:43:25;95506.84;;;6.19;91.35
46379;BME280;32084;42.254;22.744;2024-02-28T01:45:51;95501.28;;;6.22;91.70
46379;BME280;32084;42.254;22.744;2024-02-28T01:48:17;95498.94;;;6.40;90.80
46379;BME280;32084;42.254;22.744;2024-02-28T01:50:43;95504.19;;;6.19;91.82
46379;BME280;32084;42.254;22.744;2024-02-28T01:53:09;95505.91;;;5.97;92.13
46379;BME280;32084;42.254;22.744;2024-02-28T01:55:37;95511.84;;;6.01;92.06
46379;BME280;32084;42.254;22.744;2024-02-28T01:58:03;95506.75;;;6.09;92.66
46379;BME280;32084;42.254;22.744;2024-02-28T02:00:34;95506.13;;;6.17;91.78
46379;BME280;32084;42.254;22.744;2024-02-28T02:03:00;95514.16;;;5.83;91.38
46379;BME280;32084;42.254;22.744;2024-02-28T02:05:26;95514.66;;;5.65;93.50
46379;BME280;32084;42.254;22.744;2024-02-28T02:07:53;95516.91;;;5.81;93.77
46379;BME280;32084;42.254;22.744;2024-02-28T02:10:19;95517.25;;;5.99;92.71
46379;BME280;32084;42.254;22.744;2024-02-28T02:12:45;95513.13;;;6.18;92.04
46379;BME280;32084;42.254;22.744;2024-02-28T02:15:11;95505.28;;;5.94;92.65
46379;BME280;32084;42.254;22.744;2024-02-28T02:17:37;95508.72;;;5.96;93.33
46379;BME280;32084;42.254;22.744;2024-02-28T02:20:03;95513.25;;;6.05;92.83
46379;BME280;32084;42.254;22.744;2024-02-28T02:22:33;95507.25;;;6.03;92.82
46379;BME280;32084;42.254;22.744;2024-02-28T02:25:00;95509.25;;;6.22;92.09
46379;BME280;32084;42.254;22.744;2024-02-28T02:27:28;95506.81;;;6.30;91.93
46379;BME280;32084;42.254;22.744;2024-02-28T02:29:54;95516.72;;;6.28;92.13
46379;BME280;32084;42.254;22.744;2024-02-28T02:32:20;95509.63;;;6.17;91.98
46379;BME280;32084;42.254;22.744;2024-02-28T02:34:46;95500.13;;;6.03;91.49
46379;BME280;32084;42.254;22.744;2024-02-28T02:37:12;95493.81;;;6.16;91.98
46379;BME280;32084;42.254;22.744;2024-02-28T02:39:38;95497.41;;;6.26;91.12
46379;BME280;32084;42.254;22.744;2024-02-28T02:42:04;95498.09;;;6.39;91.37
46379;BME280;32084;42.254;22.744;2024-02-28T02:44:30;95489.03;;;6.63;92.06
46379;BME280;32084;42.254;22.744;2024-02-28T02:46:56;95493.72;;;6.71;91.11
46379;BME280;32084;42.254;22.744;2024-02-28T02:49:22;95495.91;;;6.65;90.54
46379;BME280;32084;42.254;22.744;2024-02-28T02:51:48;95503.38;;;6.51;91.42
46379;BME280;32084;42.254;22.744;2024-02-28T02:54:14;95506.97;;;6.50;92.74
46379;BME280;32084;42.254;22.744;2024-02-28T02:56:41;95515.06;;;6.48;94.26
46379;BME280;32084;42.254;22.744;2024-02-28T02:59:07;95505.16;;;6.50;94.73
46379;BME280;32084;42.254;22.744;2024-02-28T03:01:33;95512.31;;;6.38;94.58
46379;BME280;32084;42.254;22.744;2024-02-28T03:03:59;95514.44;;;6.23;95.08
46379;BME280;32084;42.254;22.744;2024-02-28T03:06:25;95519.09;;;6.31;95.08
46379;BME280;32084;42.254;22.744;2024-02-28T03:08:51;95520.66;;;6.45;93.70
46379;BME280;32084;42.254;22.744;2024-02-28T03:11:17;95524.69;;;6.60;92.64
46379;BME280;32084;42.254;22.744;2024-02-28T03:13:43;95512.13;;;6.62;92.60
46379;BME280;32084;42.254;22.744;2024-02-28T03:16:09;95526.03;;;6.55;92.86
46379;BME280;32084;42.254;22.744;2024-02-28T03:18:35;95519.09;;;6.63;91.98
46379;BME280;32084;42.254;22.744;2024-02-28T03:21:01;95526.97;;;6.33;92.88
46379;BME280;32084;42.254;22.744;2024-02-28T03:23:28;95525.38;;;6.41;93.05
46379;BME280;32084;42.254;22.744;2024-02-28T03:25:54;95531.75;;;6.39;92.60
46379;BME280;32084;42.254;22.744;2024-02-28T03:28:20;95527.63;;;6.14;94.05
46379;BME280;32084;42.254;22.744;2024-02-28T03:30:46;95533.69;;;6.37;93.21
46379;BME280;32084;42.254;22.744;2024-02-28T03:33:12;95540.19;;;6.44;92.65
46379;BME280;32084;42.254;22.744;2024-02-28T03:35:38;95529.38;;;6.36;93.05
46379;BME280;32084;42.254;22.744;2024-02-28T03:38:04;95525.09;;;6.44;92.65
46379;BME280;32084;42.254;22.744;2024-02-28T03:40:30;95522.31;;;6.46;92.49
46379;BME280;32084;42.254;22.744;2024-02-28T03:42:56;95542.66;;;6.36;90.82
46379;BME280;32084;42.254;22.744;2024-02-28T03:45:22;95531.84;;;5.94;93.63
46379;BME280;32084;42.254;22.744;2024-02-28T03:47:48;95533.34;;;5.98;93.82
46379;BME280;32084;42.254;22.744;2024-02-28T03:50:14;95524.63;;;6.07;92.76
46379;BME280;32084;42.254;22.744;2024-02-28T03:52:40;95524.75;;;5.83;93.51
46379;BME280;32084;42.254;22.744;2024-02-28T03:55:06;95526.81;;;5.79;95.04
46379;BME280;32084;42.254;22.744;2024-02-28T03:57:32;95528.50;;;5.69;96.03
46379;BME280;32084;42.254;22.744;2024-02-28T04:00:00;95527.28;;;5.84;95.66
46379;BME280;32084;42.254;22.744;2024-02-28T04:02:26;95531.84;;;6.05;92.98
46379;BME280;32084;42.254;22.744;2024-02-28T04:04:52;95537.31;;;6.03;92.81
46379;BME280;32084;42.254;22.744;2024-02-28T04:07:18;95535.28;;;5.96;92.03
46379;BME280;32084;42.254;22.744;2024-02-28T04:09:44;95528.16;;;5.96;92.13
46379;BME280;32084;42.254;22.744;2024-02-28T04:12:10;95532.81;;;5.93;91.77
46379;BME280;32084;42.254;22.744;2024-02-28T04:14:37;95541.50;;;5.95;92.22
46379;BME280;32084;42.254;22.744;2024-02-28T04:17:03;95539.97;;;6.03;92.09
46379;BME280;32084;42.254;22.744;2024-02-28T04:19:32;95534.66;;;6.03;91.94
46379;BME280;32084;42.254;22.744;2024-02-28T04:21:58;95540.47;;;5.63;92.71
46379;BME280;32084;42.254;22.744;2024-02-28T04:24:24;95540.19;;;5.44;95.95
46379;BME280;32084;42.254;22.744;2024-02-28T04:26:50;95535.63;;;5.46;97.05
46379;BME280;32084;42.254;22.744;2024-02-28T04:29:19;95531.91;;;5.71;95.73
46379;BME280;32084;42.254;22.744;2024-02-28T04:31:45;95528.84;;;5.98;94.03
46379;BME280;32084;42.254;22.744;2024-02-28T04:34:11;95535.19;;;6.18;92.35
46379;BME280;32084;42.254;22.744;2024-02-28T04:36:37;95544.44;;;6.35;90.93
46379;BME280;32084;42.254;22.744;2024-02-28T04:39:03;95540.88;;;6.25;91.99
46379;BME280;32084;42.254;22.744;2024-02-28T04:41:31;95552.50;;;5.90;92.08
46379;BME280;32084;42.254;22.744;2024-02-28T04:43:57;95556.59;;;5.49;94.66
46379;BME280;32084;42.254;22.744;2024-02-28T04:46:23;95555.16;;;5.45;95.40
46379;BME280;32084;42.254;22.744;2024-02-28T04:48:49;95564.91;;;5.56;95.31
46379;BME280;32084;42.254;22.744;2024-02-28T04:51:16;95563.25;;;5.66;95.52
46379;BME280;32084;42.254;22.744;2024-02-28T04:53:45;95565.63;;;5.80;95.94
46379;BME280;32084;42.254;22.744;2024-02-28T04:56:11;95561.66;;;5.97;94.40
46379;BME280;32084;42.254;22.744;2024-02-28T04:58:37;95557.78;;;6.13;93.56
46379;BME280;32084;42.254;22.744;2024-02-28T05:01:03;95559.69;;;6.22;93.12
46379;BME280;32084;42.254;22.744;2024-02-28T05:03:29;95564.13;;;6.33;92.52
46379;BME280;32084;42.254;22.744;2024-02-28T05:05:55;95573.59;;;6.14;92.64
46379;BME280;32084;42.254;22.744;2024-02-28T05:08:21;95575.91;;;5.85;93.18
46379;BME280;32084;42.254;22.744;2024-02-28T05:10:47;95580.72;;;5.68;94.14
46379;BME280;32084;42.254;22.744;2024-02-28T05:13:13;95579.28;;;5.76;95.48
46379;BME280;32084;42.254;22.744;2024-02-28T05:15:39;95588.34;;;5.96;94.45
46379;BME280;32084;42.254;22.744;2024-02-28T05:18:05;95580.38;;;6.07;93.66
46379;BME280;32084;42.254;22.744;2024-02-28T05:20:32;95584.06;;;6.27;92.69
46379;BME280;32084;42.254;22.744;2024-02-28T05:22:58;95592.00;;;6.38;92.93
46379;BME280;32084;42.254;22.744;2024-02-28T05:25:24;95587.66;;;6.37;93.31
46379;BME280;32084;42.254;22.744;2024-02-28T05:27:50;95587.91;;;6.34;93.86
46379;BME280;32084;42.254;22.744;2024-02-28T05:30:16;95591.09;;;6.17;93.53
46379;BME280;32084;42.254;22.744;2024-02-28T05:32:42;95591.56;;;6.11;94.44
46379;BME280;32084;42.254;22.744;2024-02-28T05:35:08;95592.75;;;6.29;94.67
46379;BME280;32084;42.254;22.744;2024-02-28T05:37:37;95601.53;;;6.41;93.94
46379;BME280;32084;42.254;22.744;2024-02-28T05:40:03;95600.66;;;6.52;94.07
46379;BME280;32084;42.254;22.744;2024-02-28T05:42:29;95605.00;;;6.64;93.99
46379;BME280;32084;42.254;22.744;2024-02-28T05:44:57;95609.41;;;6.75;93.58
46379;BME280;32084;42.254;22.744;2024-02-28T05:47:23;95611.81;;;6.78;93.68
46379;BME280;32084;42.254;22.744;2024-02-28T05:49:49;95609.72;;;6.93;92.89
46379;BME280;32084;42.254;22.744;2024-02-28T05:52:15;95609.31;;;6.97;93.05
46379;BME280;32084;42.254;22.744;2024-02-28T05:54:41;95622.78;;;6.84;94.29
46379;BME280;32084;42.254;22.744;2024-02-28T05:57:07;95618.31;;;6.85;94.50
46379;BME280;32084;42.254;22.744;2024-02-28T05:59:33;95624.47;;;6.86;95.56
46379;BME280;32084;42.254;22.744;2024-02-28T06:02:00;95621.94;;;6.84;94.74
46379;BME280;32084;42.254;22.744;2024-02-28T06:04:26;95630.47;;;6.99;94.55
46379;BME280;32084;42.254;22.744;2024-02-28T06:06:52;95626.25;;;6.96;94.93
46379;BME280;32084;42.254;22.744;2024-02-28T06:09:18;95627.50;;;6.81;96.13
46379;BME280;32084;42.254;22.744;2024-02-28T06:11:44;95634.72;;;6.90;95.67
46379;BME280;32084;42.254;22.744;2024-02-28T06:14:10;95631.19;;;7.01;95.17
46379;BME280;32084;42.254;22.744;2024-02-28T06:16:36;95626.13;;;7.19;95.40
46379;BME280;32084;42.254;22.744;2024-02-28T06:19:02;95626.53;;;7.35;94.33
46379;BME280;32084;42.254;22.744;2024-02-28T06:21:28;95639.53;;;7.29;93.94
46379;BME280;32084;42.254;22.744;2024-02-28T06:23:55;95633.09;;;7.31;94.05
46379;BME280;32084;42.254;22.744;2024-02-28T06:26:21;95638.28;;;7.33;93.41
46379;BME280;32084;42.254;22.744;2024-02-28T06:28:47;95643.66;;;7.42;92.69
46379;BME280;32084;42.254;22.744;2024-02-28T06:31:14;95645.97;;;7.57;92.20
46379;BME280;32084;42.254;22.744;2024-02-28T06:33:40;95635.59;;;7.75;91.56
46379;BME280;32084;42.254;22.744;2024-02-28T06:36:06;95643.53;;;7.65;89.63
46379;BME280;32084;42.254;22.744;2024-02-28T06:38:32;95646.84;;;7.78;90.13
46379;BME280;32084;42.254;22.744;2024-02-28T06:41:01;95626.44;;;7.68;90.77
46379;BME280;32084;42.254;22.744;2024-02-28T06:43:27;95638.50;;;7.72;91.98
46379;BME280;32084;42.254;22.744;2024-02-28T06:45:54;95643.41;;;7.67;93.98
46379;BME280;32084;42.254;22.744;2024-02-28T06:48:20;95645.28;;;7.76;94.10
46379;BME280;32084;42.254;22.744;2024-02-28T06:50:47;95647.94;;;7.76;93.66
46379;BME280;32084;42.254;22.744;2024-02-28T06:53:13;95647.94;;;7.76;93.59
46379;BME280;32084;42.254;22.744;2024-02-28T06:55:39;95651.16;;;7.79;94.19
46379;BME280;32084;42.254;22.744;2024-02-28T06:58:05;95648.91;;;7.75;94.17
46379;BME280;32084;42.254;22.744;2024-02-28T07:00:31;95653.97;;;7.78;93.63
46379;BME280;32084;42.254;22.744;2024-02-28T07:02:57;95650.88;;;7.73;93.49
46379;BME280;32084;42.254;22.744;2024-02-28T07:05:23;95656.06;;;7.74;93.96
46379;BME280;32084;42.254;22.744;2024-02-28T07:07:50;95658.44;;;7.77;94.03
46379;BME280;32084;42.254;22.744;2024-02-28T07:10:16;95667.56;;;8.06;91.95
46379;BME280;32084;42.254;22.744;2024-02-28T07:12:42;95668.41;;;8.37;89.58
46379;BME280;32084;42.254;22.744;2024-02-28T07:15:08;95662.38;;;8.35;89.44
46379;BME280;32084;42.254;22.744;2024-02-28T07:17:34;95666.25;;;8.52;88.60
46379;BME280;32084;42.254;22.744;2024-02-28T07:20:00;95667.09;;;8.62;86.13
46379;BME280;32084;42.254;22.744;2024-02-28T07:22:26;95665.06;;;8.95;85.90
46379;BME280;32084;42.254;22.744;2024-02-28T07:24:53;95661.16;;;9.18;82.77
46379;BME280;32084;42.254;22.744;2024-02-28T07:27:21;95668.03;;;9.31;83.09
46379;BME280;32084;42.254;22.744;2024-02-28T07:29:47;95665.50;;;9.39;81.84
46379;BME280;32084;42.254;22.744;2024-02-28T07:32:13;95658.75;;;9.64;80.33
46379;BME280;32084;42.254;22.744;2024-02-28T07:34:39;95659.84;;;9.81;79.13
46379;BME280;32084;42.254;22.744;2024-02-28T07:37:05;95662.50;;;10.28;77.36
46379;BME280;32084;42.254;22.744;2024-02-28T07:39:31;95664.47;;;10.64;77.14
46379;BME280;32084;42.254;22.744;2024-02-28T07:41:58;95654.38;;;11.03;75.81
46379;BME280;32084;42.254;22.744;2024-02-28T07:44:24;95651.16;;;11.00;76.90
46379;BME280;32084;42.254;22.744;2024-02-28T07:46:50;95656.88;;;10.87;76.39
46379;BME280;32084;42.254;22.744;2024-02-28T07:49:16;95654.63;;;10.64;78.83
46379;BME280;32084;42.254;22.744;2024-02-28T07:51:42;95657.97;;;10.39;77.63
46379;BME280;32084;42.254;22.744;2024-02-28T07:54:09;95653.78;;;10.26;75.79
46379;BME280;32084;42.254;22.744;2024-02-28T07:56:35;95654.56;;;10.46;76.89
46379;BME280;32084;42.254;22.744;2024-02-28T07:59:01;95654.88;;;10.71;76.76
46379;BME280;32084;42.254;22.744;2024-02-28T08:01:27;95655.81;;;10.80;76.26
46379;BME280;32084;42.254;22.744;2024-02-28T08:03:53;95649.22;;;10.74;74.74
46379;BME280;32084;42.254;22.744;2024-02-28T08:06:19;95652.94;;;10.63;75.66
46379;BME280;32084;42.254;22.744;2024-02-28T08:08:45;95654.31;;;10.67;74.54
46379;BME280;32084;42.254;22.744;2024-02-28T08:11:14;95652.25;;;10.61;75.23
46379;BME280;32084;42.254;22.744;2024-02-28T08:13:40;95648.63;;;10.80;75.65
46379;BME280;32084;42.254;22.744;2024-02-28T08:16:06;95652.72;;;11.02;72.23
46379;BME280;32084;42.254;22.744;2024-02-28T08:18:34;95646.81;;;11.35;72.10
46379;BME280;32084;42.254;22.744;2024-02-28T08:21:01;95644.66;;;11.38;71.93
46379;BME280;32084;42.254;22.744;2024-02-28T08:23:31;95648.88;;;11.23;72.90
46379;BME280;32084;42.254;22.744;2024-02-28T08:25:57;95644.44;;;11.31;72.19
46379;BME280;32084;42.254;22.744;2024-02-28T08:28:23;95648.56;;;11.44;73.25
46379;BME280;32084;42.254;22.744;2024-02-28T08:30:50;95641.91;;;11.48;70.71
46379;BME280;32084;42.254;22.744;2024-02-28T08:33:17;95649.19;;;11.56;71.50
46379;BME280;32084;42.254;22.744;2024-02-28T08:35:43;95649.19;;;11.56;72.31
46379;BME280;32084;42.254;22.744;2024-02-28T08:38:09;95648.13;;;11.93;72.21
46379;BME280;32084;42.254;22.744;2024-02-28T08:40:35;95652.66;;;12.18;68.72
46379;BME280;32084;42.254;22.744;2024-02-28T08:43:01;95649.25;;;12.77;66.67
46379;BME280;32084;42.254;22.744;2024-02-28T08:45:27;95642.53;;;12.81;65.70
46379;BME280;32084;42.254;22.744;2024-02-28T08:47:53;95644.94;;;12.92;68.71
46379;BME280;32084;42.254;22.744;2024-02-28T08:50:19;95650.16;;;14.33;64.72
46379;BME280;32084;42.254;22.744;2024-02-28T08:52:46;95655.66;;;14.56;61.31
46379;BME280;32084;42.254;22.744;2024-02-28T08:55:12;95641.81;;;14.03;63.76
46379;BME280;32084;42.254;22.744;2024-02-28T08:57:38;95638.28;;;13.21;64.16
46379;BME280;32084;42.254;22.744;2024-02-28T09:00:04;95629.66;;;12.84;66.65
46379;BME280;32084;42.254;22.744;2024-02-28T09:02:30;95634.16;;;12.84;67.60
46379;BME280;32084;42.254;22.744;2024-02-28T09:04:56;95632.22;;;13.19;66.74
46379;BME280;32084;42.254;22.744;2024-02-28T09:07:22;95632.94;;;13.62;65.53
46379;BME280;32084;42.254;22.744;2024-02-28T09:09:48;95632.25;;;13.84;63.92
46379;BME280;32084;42.254;22.744;2024-02-28T09:12:15;95635.47;;;13.88;62.91
46379;BME280;32084;42.254;22.744;2024-02-28T09:14:41;95623.50;;;14.15;61.31
46379;BME280;32084;42.254;22.744;2024-02-28T09:17:07;95628.28;;;14.92;60.87
46379;BME280;32084;42.254;22.744;2024-02-28T09:19:33;95628.38;;;15.07;59.24
46379;BME280;32084;42.254;22.744;2024-02-28T09:21:59;95627.84;;;14.80;59.60
46379;BME280;32084;42.254;22.744;2024-02-28T09:24:26;95622.94;;;14.28;61.34
46379;BME280;32084;42.254;22.744;2024-02-28T09:26:52;95626.03;;;13.92;61.40
46379;BME280;32084;42.254;22.744;2024-02-28T09:29:18;95626.94;;;13.68;63.17
46379;BME280;32084;42.254;22.744;2024-02-28T09:31:44;95615.16;;;13.36;64.75
46379;BME280;32084;42.254;22.744;2024-02-28T09:34:10;95619.34;;;13.31;65.34
46379;BME280;32084;42.254;22.744;2024-02-28T09:36:42;95618.53;;;13.38;66.45
46379;BME280;32084;42.254;22.744;2024-02-28T09:39:11;95625.56;;;13.31;64.94
46379;BME280;32084;42.254;22.744;2024-02-28T09:41:38;95609.06;;;13.26;66.22
46379;BME280;32084;42.254;22.744;2024-02-28T09:44:05;95610.78;;;13.35;64.43
46379;BME280;32084;42.254;22.744;2024-02-28T09:46:32;95611.47;;;13.45;64.11
46379;BME280;32084;42.254;22.744;2024-02-28T09:49:06;95607.75;;;13.71;64.16
46379;BME280;32084;42.254;22.744;2024-02-28T09:51:33;95607.44;;;13.66;63.94
46379;BME280;32084;42.254;22.744;2024-02-28T09:54:02;95612.94;;;13.81;64.59
46379;BME280;32084;42.254;22.744;2024-02-28T09:56:29;95610.59;;;14.02;64.58
46379;BME280;32084;42.254;22.744;2024-02-28T09:58:56;95618.94;;;14.16;64.01
46379;BME280;32084;42.254;22.744;2024-02-28T10:01:22;95612.84;;;14.30;64.36
46379;BME280;32084;42.254;22.744;2024-02-28T10:03:51;95605.31;;;14.25;63.36
46379;BME280;32084;42.254;22.744;2024-02-28T10:06:20;95595.75;;;14.15;63.70
46379;BME280;32084;42.254;22.744;2024-02-28T10:08:46;95608.78;;;14.42;64.13
46379;BME280;32084;42.254;22.744;2024-02-28T10:11:22;95606.16;;;14.74;61.87
46379;BME280;32084;42.254;22.744;2024-02-28T10:13:48;95600.34;;;14.93;62.20
46379;BME280;32084;42.254;22.744;2024-02-28T10:16:15;95595.25;;;14.98;61.93
46379;BME280;32084;42.254;22.744;2024-02-28T10:18:44;95596.88;;;15.08;61.94
46379;BME280;32084;42.254;22.744;2024-02-28T10:21:10;95592.22;;;15.48;59.08
46379;BME280;32084;42.254;22.744;2024-02-28T10:23:38;95581.56;;;15.54;58.96
46379;BME280;32084;42.254;22.744;2024-02-28T10:26:04;95583.13;;;15.49;59.78
46379;BME280;32084;42.254;22.744;2024-02-28T10:28:30;95578.69;;;15.56;59.69
46379;BME280;32084;42.254;22.744;2024-02-28T10:30:56;95577.22;;;15.68;59.74
46379;BME280;32084;42.254;22.744;2024-02-28T10:33:25;95572.41;;;15.40;58.99
46379;BME280;32084;42.254;22.744;2024-02-28T10:35:54;95565.88;;;15.58;59.99
46379;BME280;32084;42.254;22.744;2024-02-28T10:38:20;95561.41;;;15.88;59.94
46379;BME280;32084;42.254;22.744;2024-02-28T10:40:46;95565.13;;;16.17;58.63
46379;BME280;32084;42.254;22.744;2024-02-28T10:43:13;95562.59;;;16.00;58.13
46379;BME280;32084;42.254;22.744;2024-02-28T10:45:42;95548.88;;;15.72;59.04
46379;BME280;32084;42.254;22.744;2024-02-28T10:48:08;95549.06;;;15.71;59.85
46379;BME280;32084;42.254;22.744;2024-02-28T10:50:35;95543.19;;;15.52;60.57
46379;BME280;32084;42.254;22.744;2024-02-28T10:53:04;95547.59;;;15.45;59.72
46379;BME280;32084;42.254;22.744;2024-02-28T10:55:37;95539.56;;;15.60;60.52
46379;BME280;32084;42.254;22.744;2024-02-28T10:58:09;95544.94;;;15.83;59.66
46379;BME280;32084;42.254;22.744;2024-02-28T11:00:38;95542.63;;;15.95;59.62
46379;BME280;32084;42.254;22.744;2024-02-28T11:03:07;95532.56;;;15.89;59.88
46379;BME280;32084;42.254;22.744;2024-02-28T11:05:41;95539.84;;;15.88;58.96
46379;BME280;32084;42.254;22.744;2024-02-28T11:08:08;95535.38;;;15.95;58.58
46379;BME280;32084;42.254;22.744;2024-02-28T11:10:35;95521.59;;;15.90;59.90
46379;BME280;32084;42.254;22.744;2024-02-28T11:13:01;95527.50;;;15.71;59.96
46379;BME280;32084;42.254;22.744;2024-02-28T11:15:27;95520.94;;;15.73;58.97
46379;BME280;32084;42.254;22.744;2024-02-28T11:17:53;95514.56;;;15.66;60.21
46379;BME280;32084;42.254;22.744;2024-02-28T11:20:19;95510.47;;;15.70;59.11
46379;BME280;32084;42.254;22.744;2024-02-28T11:22:45;95510.16;;;15.88;59.89
46379;BME280;32084;42.254;22.744;2024-02-28T11:25:12;95510.84;;;16.05;58.83
46379;BME280;32084;42.254;22.744;2024-02-28T11:27:48;95514.31;;;15.76;57.63
46379;BME280;32084;42.254;22.744;2024-02-28T11:30:14;95505.78;;;15.87;57.84
46379;BME280;32084;42.254;22.744;2024-02-28T11:32:41;95500.41;;;16.02;58.64
46379;BME280;32084;42.254;22.744;2024-02-28T11:35:07;95493.41;;;16.23;58.42
46379;BME280;32084;42.254;22.744;2024-02-28T11:37:34;95487.31;;;16.50;59.55
46379;BME280;32084;42.254;22.744;2024-02-28T11:40:00;95493.41;;;16.74;57.58
46379;BME280;32084;42.254;22.744;2024-02-28T11:42:26;95484.84;;;17.28;56.18
46379;BME280;32084;42.254;22.744;2024-02-28T11:44:55;95480.44;;;17.27;55.77
46379;BME280;32084;42.254;22.744;2024-02-28T11:47:23;95480.00;;;17.24;56.34
46379;BME280;32084;42.254;22.744;2024-02-28T11:49:49;95486.09;;;17.32;55.34
46379;BME280;32084;42.254;22.744;2024-02-28T11:52:15;95484.78;;;17.50;54.51
46379;BME280;32084;42.254;22.744;2024-02-28T11:54:41;95483.25;;;17.69;54.55
46379;BME280;32084;42.254;22.744;2024-02-28T11:57:07;95467.88;;;17.69;55.13
46379;BME280;32084;42.254;22.744;2024-02-28T11:59:39;95465.47;;;17.53;55.31
46379;BME280;32084;42.254;22.744;2024-02-28T12:02:12;95469.84;;;17.54;55.47
46379;BME280;32084;42.254;22.744;2024-02-28T12:04:39;95465.50;;;17.31;55.91
46379;BME280;32084;42.254;22.744;2024-02-28T12:07:05;95456.16;;;17.06;57.15
46379;BME280;32084;42.254;22.744;2024-02-28T12:09:32;95456.50;;;16.81;57.60
46379;BME280;32084;42.254;22.744;2024-02-28T12:12:00;95458.22;;;16.67;58.54
46379;BME280;32084;42.254;22.744;2024-02-28T12:14:26;95452.31;;;16.57;58.32
46379;BME280;32084;42.254;22.744;2024-02-28T12:16:52;95446.41;;;16.47;59.01
46379;BME280;32084;42.254;22.744;2024-02-28T12:19:18;95448.97;;;16.55;59.00
46379;BME280;32084;42.254;22.744;2024-02-28T12:21:46;95449.28;;;16.67;58.33
46379;BME280;32084;42.254;22.744;2024-02-28T12:24:12;95446.69;;;16.73;58.34
46379;BME280;32084;42.254;22.744;2024-02-28T12:26:38;95449.81;;;16.77;57.84
46379;BME280;32084;42.254;22.744;2024-02-28T12:29:04;95453.06;;;16.87;57.37
46379;BME280;32084;42.254;22.744;2024-02-28T12:31:31;95450.81;;;16.91;56.43
46379;BME280;32084;42.254;22.744;2024-02-28T12:33:57;95448.91;;;16.85;57.12
46379;BME280;32084;42.254;22.744;2024-02-28T12:36:23;95448.13;;;16.91;56.76
46379;BME280;32084;42.254;22.744;2024-02-28T12:38:50;95453.06;;;16.87;56.59
46379;BME280;32084;42.254;22.744;2024-02-28T12:41:17;95453.81;;;16.81;57.17
46379;BME280;32084;42.254;22.744;2024-02-28T12:43:43;95452.06;;;16.73;56.55
46379;BME280;32084;42.254;22.744;2024-02-28T12:46:09;95447.31;;;16.75;56.63
46379;BME280;32084;42.254;22.744;2024-02-28T12:48:38;95444.03;;;16.80;56.87
46379;BME280;32084;42.254;22.744;2024-02-28T12:51:05;95442.44;;;16.86;56.64